Darstellungsparameter: Aktuell verwendete Einstellungen:
Skalierung der Graphiken ... ?
xyx+y,   Skalierungsfaktor:      Skalierung: Modus: x, Faktor: 1
Darstellungszeitraum ... ?
Vom - - bis: - -   Zeitraum: 30.08.2010 - 30.08.2010
Min/Max/Avg-Anzeige ... ?
Zeige MMA aktuell
Zeige MMA Monat
Zeige MMA alles
Zeige --A aktuell
Zeige --A Monat
Zeige --A alles
Keine MMA-Anzeige
MMA:
Minimum Maximum Average (ber die Originaldaten)
MMA-Basis: 30.08.2010 - 30.08.2010
Quicknavigation für Darstellung... ?
Tage:      1T, 2T, 3T, 5T -1T -2T -3T -5T +1T +2T +3T +5T
Wochen: 1W, 2W, 3W -1W -2W -3W +1W +2W +3W
Monate: 1M, 3M, 6M -1M -3M -6M +1M +3M +6M
Jahre:    1J, 3J, 5J, 10J -1J -3J -5J -10J +1J +3J +5J +10J
Nutze für die Darstellung ... ?
Originaldaten oder Mittelwerte auf ...
Stundenbasis Tagesbasis Wochenbasis
Monatsbasis Jahresbasis      Datenbasis: Original-Daten
Darstellen als:
Statistik (Auto) Statistik J:M      Darstellung:
Zur Graphik,    zurück zur Übersicht aller Sensoren.
 
Tabellarische Datenbersicht: ?
 
Sensor: Nr:Datum:Temp:Abs-Feuchte:Windchill:Wind:
Aussen-T/F 1 30-08-2010 00:09:03 9.1 C 7.99 g/m*3 9.1 C 0 km/h
2 30-08-2010 00:21:03 9.1 C 7.99 g/m*3 9.1 C 0 km/h
3 30-08-2010 00:33:03 9.1 C 7.99 g/m*3 9.1 C 0 km/h
4 30-08-2010 00:45:03 9.2 C 7.95 g/m*3 9.2 C 0 km/h
5 30-08-2010 00:57:03 9.5 C 8.01 g/m*3 9.5 C 0 km/h
6 30-08-2010 01:09:03 9.7 C 7.93 g/m*3 9.7 C 0 km/h
7 30-08-2010 01:21:03 9.8 C 7.89 g/m*3 9.8 C 0 km/h
8 30-08-2010 01:33:03 10 C 7.8 g/m*3 10 C 0 km/h
9 30-08-2010 01:45:04 10 C 7.8 g/m*3 10 C 0 km/h
10 30-08-2010 01:57:04 10.2 C 7.8 g/m*3 10.2 C 0 km/h
11 30-08-2010 02:09:04 10.1 C 7.75 g/m*3 10.1 C 0 km/h
12 30-08-2010 02:21:04 10.2 C 7.8 g/m*3 10.2 C 0 km/h
13 30-08-2010 02:33:04 10.5 C 7.86 g/m*3 10.5 C 0 km/h
14 30-08-2010 02:45:04 10.8 C 7.81 g/m*3 10.8 C 0 km/h
15 30-08-2010 02:57:04 11 C 7.61 g/m*3 11 C 0 km/h
16 30-08-2010 03:09:04 11.1 C 7.45 g/m*3 11.1 C 0 km/h
17 30-08-2010 03:21:04 11.2 C 7.5 g/m*3 11.2 C 0 km/h
18 30-08-2010 03:33:04 11 C 7.61 g/m*3 11 C 0 km/h
19 30-08-2010 03:45:04 10.5 C 7.76 g/m*3 10.5 C 0 km/h
20 30-08-2010 03:57:04 10.3 C 7.95 g/m*3 10.3 C 0 km/h
21 30-08-2010 04:09:04 10.3 C 8.04 g/m*3 10.3 C 0 km/h
22 30-08-2010 04:21:04 10.3 C 8.04 g/m*3 10.3 C 0 km/h
23 30-08-2010 04:33:04 10.3 C 8.04 g/m*3 10.3 C 0 km/h
24 30-08-2010 04:45:04 10.2 C 7.99 g/m*3 10.2 C 0 km/h
25 30-08-2010 04:57:04 10.2 C 7.8 g/m*3 10.2 C 0 km/h
Sensor: Nr:Datum:Temp:Abs-Feuchte:Windchill:Wind:
Aussen-T/F 26 30-08-2010 05:09:04 9.8 C 7.7 g/m*3 9.8 C 0 km/h
27 30-08-2010 05:21:04 9.6 C 7.79 g/m*3 9.6 C 0 km/h
28 30-08-2010 05:33:04 9.3 C 7.91 g/m*3 9.3 C 0 km/h
29 30-08-2010 05:45:05 9.6 C 8.24 g/m*3 9.6 C 0 km/h
30 30-08-2010 05:57:05 9.8 C 8.44 g/m*3 9.8 C 0 km/h
31 30-08-2010 06:09:05 9.9 C 8.5 g/m*3 9.9 C 0 km/h
32 30-08-2010 06:21:05 10 C 8.46 g/m*3 10 C 0 km/h
33 30-08-2010 06:33:05 10.1 C 8.51 g/m*3 10.1 C 0 km/h
34 30-08-2010 06:45:05 10.1 C 8.42 g/m*3 10.1 C 0 km/h
35 30-08-2010 06:57:05 10.2 C 8.47 g/m*3 10.2 C 0 km/h
36 30-08-2010 07:09:05 10.1 C 8.42 g/m*3 10.1 C 0 km/h
37 30-08-2010 07:21:05 9.9 C 8.4 g/m*3 9.9 C 0 km/h
38 30-08-2010 07:33:05 9.8 C 8.35 g/m*3 9.8 C 0 km/h
39 30-08-2010 07:45:05 9.9 C 8.4 g/m*3 9.9 C 0 km/h
40 30-08-2010 07:57:05 10.1 C 8.42 g/m*3 10.1 C 0 km/h
41 30-08-2010 08:09:05 10.1 C 8.42 g/m*3 10.1 C 0 km/h
42 30-08-2010 08:21:02 10.7 C 8.74 g/m*3 10.7 C 0 km/h
43 30-08-2010 08:33:02 11 C 8.71 g/m*3 11 C 0 km/h
44 30-08-2010 08:45:01 11.2 C 8.72 g/m*3 11.2 C 0 km/h
45 30-08-2010 08:57:01 11.1 C 8.56 g/m*3 11.1 C 0 km/h
46 30-08-2010 09:09:01 11.2 C 8.62 g/m*3 11.2 C 0 km/h
47 30-08-2010 09:21:01 10.8 C 8.4 g/m*3 10.8 C 0 km/h
48 30-08-2010 09:33:01 10.8 C 8.6 g/m*3 10.8 C 0 km/h
49 30-08-2010 09:45:01 11 C 8.71 g/m*3 11 C 0 km/h
50 30-08-2010 09:57:01 11.1 C 8.86 g/m*3 11.1 C 0 km/h
Sensor: Nr:Datum:Temp:Abs-Feuchte:Windchill:Wind:
Aussen-T/F 51 30-08-2010 10:09:01 11 C 8.61 g/m*3 11 C 0 km/h
52 30-08-2010 10:21:02 11.5 C 8.88 g/m*3 11.5 C 0 km/h
53 30-08-2010 10:33:01 11.9 C 8.9 g/m*3 11.9 C 0 km/h
54 30-08-2010 10:45:02 12.4 C 8.96 g/m*3 12.4 C 0 km/h
55 30-08-2010 10:57:02 12.5 C 8.8 g/m*3 12.5 C 0 km/h
56 30-08-2010 11:09:03 12.6 C 8.96 g/m*3 12.6 C 0 km/h
57 30-08-2010 11:21:02 12.7 C 8.13 g/m*3 12.7 C 0 km/h
58 30-08-2010 11:33:02 13.1 C 8.1 g/m*3 13.1 C 0 km/h
59 30-08-2010 11:45:02 13.1 C 8.1 g/m*3 13.1 C 0 km/h
60 30-08-2010 11:57:02 13.5 C 8.3 g/m*3 13.5 C 0 km/h
61 30-08-2010 12:09:01 13.8 C 8.22 g/m*3 13.8 C 0 km/h
62 30-08-2010 12:21:02 13.4 C 7.9 g/m*3 13.4 C 0 km/h
63 30-08-2010 12:33:01 13.8 C 8.22 g/m*3 13.8 C 0 km/h
64 30-08-2010 12:45:02 14.5 C 6.96 g/m*3 14.5 C 0 km/h
65 30-08-2010 12:57:02 14.6 C 6.76 g/m*3 14.6 C 0 km/h
66 30-08-2010 13:09:01 15.5 C 6.74 g/m*3 15.5 C 0 km/h
67 30-08-2010 13:21:01 16 C 6.81 g/m*3 16 C 0 km/h
68 30-08-2010 13:33:01 16.3 C 6.52 g/m*3 16.3 C 0 km/h
69 30-08-2010 13:45:02 16.2 C 6.76 g/m*3 16.2 C 0 km/h
70 30-08-2010 13:57:02 16.2 C 7.03 g/m*3 16.2 C 0 km/h
71 30-08-2010 14:09:01 15.7 C 7.36 g/m*3 15.7 C 0 km/h
72 30-08-2010 14:21:02 15.6 C 7.85 g/m*3 15.6 C 0 km/h
73 30-08-2010 14:33:02 16.6 C 7.91 g/m*3 16.6 C 0 km/h
74 30-08-2010 14:45:02 16.7 C 7.67 g/m*3 16.7 C 0 km/h
75 30-08-2010 14:57:02 16.8 C 7.86 g/m*3 16.8 C 0 km/h
Sensor: Nr:Datum:Temp:Abs-Feuchte:Windchill:Wind:
Aussen-T/F 76 30-08-2010 15:09:03 17.3 C 8.25 g/m*3 17.3 C 0 km/h
77 30-08-2010 15:21:02 17.7 C 7.85 g/m*3 17.7 C 0 km/h
78 30-08-2010 15:33:02 17.3 C 7.66 g/m*3 17.3 C 0 km/h
79 30-08-2010 15:45:01 17.7 C 7.54 g/m*3 17.7 C 0 km/h
80 30-08-2010 15:57:01 17.4 C 7.71 g/m*3 17.4 C 0 km/h
81 30-08-2010 16:09:02 16.9 C 7.77 g/m*3 16.9 C 0 km/h
82 30-08-2010 16:21:01 15.8 C 8.88 g/m*3 15.8 C 0 km/h
83 30-08-2010 16:33:02 14.8 C 9.37 g/m*3 14.8 C 0 km/h
84 30-08-2010 16:45:02 15.5 C 9.78 g/m*3 15.5 C 0 km/h
85 30-08-2010 16:57:02 16.3 C 9.85 g/m*3 16.3 C 0 km/h
86 30-08-2010 17:09:02 15.8 C 9.42 g/m*3 15.8 C 0 km/h
87 30-08-2010 17:21:01 15 C 9.49 g/m*3 15 C 0 km/h
88 30-08-2010 17:33:02 14.8 C 9.5 g/m*3 14.8 C 0 km/h
89 30-08-2010 17:45:01 14.7 C 8.81 g/m*3 14.7 C 0 km/h
90 30-08-2010 17:57:01 14.9 C 8.92 g/m*3 14.9 C 0 km/h
91 30-08-2010 18:09:02 14.7 C 8.69 g/m*3 14.7 C 0 km/h
92 30-08-2010 18:21:01 14.6 C 8.76 g/m*3 14.6 C 0 km/h
93 30-08-2010 18:33:02 14.3 C 8.6 g/m*3 14.3 C 0 km/h
94 30-08-2010 18:45:01 14.1 C 8.74 g/m*3 14.1 C 0 km/h
95 30-08-2010 18:57:01 13.9 C 8.99 g/m*3 13.9 C 0 km/h
96 30-08-2010 19:09:02 13.9 C 8.99 g/m*3 13.9 C 0 km/h
97 30-08-2010 19:21:02 13.9 C 9.23 g/m*3 13.9 C 0 km/h
98 30-08-2010 19:33:01 14.1 C 9.22 g/m*3 14.1 C 0 km/h
99 30-08-2010 19:45:02 14.2 C 8.91 g/m*3 14.2 C 0 km/h
100 30-08-2010 19:57:02 14.1 C 8.5 g/m*3 14.1 C 0 km/h
Sensor: Nr:Datum:Temp:Abs-Feuchte:Windchill:Wind:
Aussen-T/F 101 30-08-2010 20:09:01 13.9 C 8.51 g/m*3 13.9 C 0 km/h
102 30-08-2010 20:21:02 13.9 C 8.51 g/m*3 13.9 C 0 km/h
103 30-08-2010 20:33:01 14 C 8.56 g/m*3 14 C 0 km/h
104 30-08-2010 20:45:02 13.8 C 8.94 g/m*3 13.8 C 0 km/h
105 30-08-2010 20:57:02 13.2 C 9.07 g/m*3 13.2 C 0 km/h
106 30-08-2010 21:09:02 13.1 C 9.36 g/m*3 13.1 C 0 km/h
107 30-08-2010 21:21:01 12.9 C 9.58 g/m*3 12.9 C 0 km/h
108 30-08-2010 21:33:01 12.7 C 9.68 g/m*3 12.7 C 0 km/h
109 30-08-2010 21:45:02 12.4 C 9.51 g/m*3 12.4 C 0 km/h
110 30-08-2010 21:57:02 12.5 C 9.68 g/m*3 12.5 C 0 km/h
111 30-08-2010 22:09:02 12.8 C 9.97 g/m*3 12.8 C 0 km/h
112 30-08-2010 22:21:02 12.8 C 9.97 g/m*3 12.8 C 0 km/h
113 30-08-2010 22:33:02 12.7 C 9.91 g/m*3 12.7 C 0 km/h
114 30-08-2010 22:45:02 12.7 C 9.91 g/m*3 12.7 C 0 km/h
115 30-08-2010 22:57:02 12.6 C 9.85 g/m*3 12.6 C 0 km/h
116 30-08-2010 23:10:03 12.4 C 9.72 g/m*3 12.4 C 0 km/h
117 30-08-2010 23:22:03 12.4 C 9.72 g/m*3 12.4 C 0 km/h
118 30-08-2010 23:34:03 12.4 C 9.83 g/m*3 12.4 C 0 km/h
119 30-08-2010 23:46:03 12.2 C 9.6 g/m*3 12.2 C 0 km/h
120 30-08-2010 23:58:03 12.1 C 9.54 g/m*3 12.1 C 0 km/h

Legende:
   Min
   Max


Maximal/Minimal-Werte vom 30.08.2010 - 30.08.2010

Sensor Min Max Avg
Temp
(Aussen-T/F)
9.1 °C
30-08-2010  00:09:03
17.7 °C
30-08-2010  15:21:02
12.57 °C
Abs-Feuchte
(Aussen-T/F)
6.52 g/m*3
30-08-2010  13:33:01
9.97 g/m*3
30-08-2010  22:09:02
8.36 g/m*3
Windchill
(Aussen-T/F)
9.1 C
30-08-2010  00:09:03
17.7 C
30-08-2010  15:21:02
12.46 C

Die Daten stammen von einer Davis Vantage Pro 2 Wetter-Station und werden unter Linux mit der Software wview2wettercgi und aufbereitet. Alle Angaben erfolgen ohne Gewähr für ihre Vollständigkeit oder Richtigkeit.
Kontakt: Rainer Krienke krienke@uni-koblenz.de . Meine Webseiten an der Uni Koblenz oder privat.
Version: $Revision: 0.78 $